Time;durP1;ratioP1;P1;durP2;ratioP2;P2;SDS_P1;SDS_P2;PMS_P1;PMS_P2;Temp;Humidity;BMP_temperature;BMP_pressure;BME280_temperature;BME280_humidity;BME280_pressure;Samples;Min_cycle;Max_cycle;Signal;HPM_P1;HPM_P2
2022/11/16 00:01:27;;;;;;;0.10;0.10;;;11.20;99.90;;;;;;5105677;28;20664;-85
2022/11/16 00:03:54;;;;;;;0.07;0.07;;;11.30;99.90;;;;;;5081118;28;20181;-85
2022/11/16 00:06:22;;;;;;;0.10;0.10;;;11.30;99.90;;;;;;5097073;28;20254;-85
2022/11/16 00:11:36;;;;;;;0.10;0.10;;;11.50;99.90;;;;;;5090386;28;20272;-85
2022/11/16 00:14:02;;;;;;;0.10;0.10;;;11.60;99.90;;;;;;5100246;28;20194;-85
2022/11/16 00:16:28;;;;;;;0.10;0.10;;;11.70;99.90;;;;;;5106888;28;20195;-86
2022/11/16 00:18:59;;;;;;;0.10;0.10;;;11.70;99.90;;;;;;5087228;28;20570;-85
2022/11/16 00:21:25;;;;;;;0.10;0.10;;;11.60;99.90;;;;;;5101846;28;20541;-85
2022/11/16 00:23:51;;;;;;;0.10;0.10;;;11.50;99.90;;;;;;5093408;28;20214;-85
2022/11/16 00:26:17;;;;;;;0.10;0.10;;;11.40;99.90;;;;;;5099535;28;20192;-85
2022/11/16 00:28:43;;;;;;;0.10;0.10;;;11.40;99.90;;;;;;5092511;28;20183;-85
2022/11/16 00:31:09;;;;;;;0.10;0.10;;;11.40;99.90;;;;;;5095517;28;20598;-85
2022/11/16 00:33:35;;;;;;;0.97;0.97;;;11.40;99.90;;;;;;5092946;28;20218;-85
2022/11/16 00:36:03;;;;;;;0.10;0.10;;;11.30;99.90;;;;;;5095063;28;20192;-84
2022/11/16 00:38:28;;;;;;;0.10;0.10;;;11.30;99.90;;;;;;5091776;28;20215;-85
2022/11/16 00:40:54;;;;;;;0.10;0.10;;;11.30;99.90;;;;;;5095428;28;20195;-85
2022/11/16 00:43:19;;;;;;;0.10;0.10;;;11.20;99.90;;;;;;5111618;28;20256;-85
2022/11/16 00:45:45;;;;;;;0.10;0.10;;;11.20;99.90;;;;;;5101016;28;20180;-85
2022/11/16 00:48:11;;;;;;;0.10;0.10;;;11.10;99.90;;;;;;5111673;28;20190;-85
2022/11/16 00:50:37;;;;;;;0.10;0.10;;;11.10;99.90;;;;;;5106464;28;20200;-85
2022/11/16 00:53:04;;;;;;;0.10;0.10;;;11.00;99.90;;;;;;5117375;28;20184;-85
2022/11/16 00:55:30;;;;;;;0.10;0.10;;;11.00;99.90;;;;;;5115752;28;20180;-86
2022/11/16 00:57:55;;;;;;;0.03;0.03;;;11.00;99.90;;;;;;5106242;28;20237;-85
2022/11/16 01:00:21;;;;;;;0.10;0.10;;;11.00;99.90;;;;;;5110527;28;20201;-85
2022/11/16 01:02:46;;;;;;;0.10;0.10;;;11.20;99.90;;;;;;5100808;28;20528;-85
2022/11/16 01:05:12;;;;;;;0.10;0.10;;;11.20;99.90;;;;;;5099166;28;20295;-84
2022/11/16 01:07:39;;;;;;;0.10;0.10;;;11.10;99.90;;;;;;5100336;28;20186;-86
2022/11/16 01:10:08;;;;;;;0.10;0.10;;;11.20;99.90;;;;;;5083552;28;20596;-86
2022/11/16 01:12:34;;;;;;;0.10;0.10;;;11.10;99.90;;;;;;5092863;28;20187;-85
2022/11/16 01:15:00;;;;;;;0.10;0.10;;;11.00;99.90;;;;;;5095025;28;20176;-85
2022/11/16 01:17:25;;;;;;;0.10;0.10;;;11.10;99.90;;;;;;5111264;28;20180;-85
2022/11/16 01:19:55;;;;;;;0.10;0.10;;;11.00;99.90;;;;;;5098291;28;20634;-85
2022/11/16 01:22:21;;;;;;;0.10;0.10;;;11.10;99.90;;;;;;5107717;28;20176;-85
2022/11/16 01:24:47;;;;;;;0.10;0.10;;;11.30;99.90;;;;;;5109282;28;20224;-85
2022/11/16 01:27:13;;;;;;;0.10;0.10;;;11.30;99.90;;;;;;5087855;28;20198;-86
2022/11/16 01:29:39;;;;;;;0.10;0.10;;;11.20;99.90;;;;;;5089861;28;20204;-84
2022/11/16 01:32:05;;;;;;;0.10;0.10;;;11.20;99.90;;;;;;5109309;28;20686;-85
2022/11/16 01:34:30;;;;;;;0.10;0.10;;;11.20;99.90;;;;;;5084502;28;20672;-85
2022/11/16 01:36:56;;;;;;;0.10;0.10;;;11.20;99.90;;;;;;5095507;28;20191;-85
2022/11/16 01:39:21;;;;;;;0.10;0.10;;;11.30;99.90;;;;;;5092230;28;20216;-85
2022/11/16 01:41:47;;;;;;;0.10;0.10;;;11.30;99.90;;;;;;5104506;28;20230;-86
2022/11/16 01:44:31;;;;;;;0.10;0.10;;;11.30;99.90;;;;;;5099348;28;20204;-86
2022/11/16 01:47:03;;;;;;;0.10;0.10;;;11.40;99.90;;;;;;5088163;28;20168;-86
2022/11/16 01:49:31;;;;;;;0.10;0.10;;;11.50;99.90;;;;;;5104322;28;20200;-86
2022/11/16 01:52:04;;;;;;;0.10;0.10;;;11.50;99.90;;;;;;5114216;28;20260;-85
2022/11/16 01:54:34;;;;;;;0.10;0.10;;;11.30;99.90;;;;;;5108349;28;20217;-86
2022/11/16 01:57:04;;;;;;;0.10;0.10;;;11.20;99.90;;;;;;5102506;28;20224;-85
2022/11/16 01:59:30;;;;;;;0.10;0.10;;;11.20;99.90;;;;;;5098916;28;20233;-86
2022/11/16 02:01:58;;;;;;;0.10;0.10;;;11.30;99.90;;;;;;5104797;28;20171;-85
2022/11/16 02:04:24;;;;;;;0.10;0.10;;;11.10;99.90;;;;;;5097182;28;20173;-85
2022/11/16 02:07:17;;;;;;;0.10;0.10;;;11.00;99.90;;;;;;5096186;28;20177;-85
2022/11/16 02:09:57;;;;;;;0.10;0.10;;;11.00;99.90;;;;;;5094064;28;20200;-85
2022/11/16 02:12:40;;;;;;;0.10;0.10;;;11.10;99.90;;;;;;5091128;28;20238;-84
2022/11/16 02:15:26;;;;;;;0.10;0.10;;;10.90;99.90;;;;;;5084560;28;20187;-85
2022/11/16 02:18:25;;;;;;;0.10;0.10;;;11.00;99.90;;;;;;5096320;28;20180;-85
2022/11/16 02:21:15;;;;;;;0.10;0.10;;;11.10;99.90;;;;;;5103826;28;20645;-85
2022/11/16 02:24:21;;;;;;;0.17;0.17;;;10.90;99.90;;;;;;5094648;28;20228;-86
2022/11/16 02:27:13;;;;;;;0.10;0.10;;;10.80;99.90;;;;;;5098131;28;20259;-85
2022/11/16 02:29:50;;;;;;;0.10;0.10;;;10.80;99.90;;;;;;5093440;28;20202;-86
2022/11/16 02:32:27;;;;;;;0.10;0.10;;;10.90;99.90;;;;;;5100323;28;20180;-86
2022/11/16 02:35:13;;;;;;;0.10;0.10;;;11.00;99.90;;;;;;5100584;28;20175;-85
2022/11/16 02:37:45;;;;;;;0.10;0.10;;;11.10;99.90;;;;;;5089749;28;20188;-85
2022/11/16 02:40:14;;;;;;;0.10;0.10;;;11.00;99.90;;;;;;5103901;28;20222;-85
2022/11/16 02:42:46;;;;;;;0.10;0.10;;;11.10;99.90;;;;;;5106359;28;20186;-85
2022/11/16 02:45:18;;;;;;;0.10;0.10;;;11.10;99.90;;;;;;5091864;28;20183;-85
2022/11/16 02:47:46;;;;;;;0.00;0.00;;;11.10;99.90;;;;;;5085434;28;20180;-86
2022/11/16 02:50:17;;;;;;;0.10;0.10;;;11.10;99.90;;;;;;5091258;28;20287;-86
2022/11/16 02:52:43;;;;;;;0.10;0.10;;;11.20;99.90;;;;;;5109590;28;20174;-86
2022/11/16 02:55:08;;;;;;;0.10;0.10;;;11.10;99.90;;;;;;5081134;28;20181;-85
2022/11/16 02:57:50;;;;;;;0.10;0.10;;;11.10;99.90;;;;;;5097090;28;20615;-85
2022/11/16 03:00:22;;;;;;;0.03;0.03;;;11.20;99.90;;;;;;5100418;28;20676;-85
2022/11/16 03:03:11;;;;;;;0.10;0.10;;;11.20;99.90;;;;;;5094663;28;20176;-85
2022/11/16 03:05:49;;;;;;;0.10;0.10;;;11.30;99.90;;;;;;5087905;28;20533;-85
2022/11/16 03:08:23;;;;;;;0.50;0.50;;;11.40;99.90;;;;;;5102614;28;20179;-85
2022/11/16 03:13:43;;;;;;;0.10;0.10;;;11.40;99.90;;;;;;5085907;28;20216;-85
2022/11/16 03:16:40;;;;;;;0.10;0.10;;;11.50;99.90;;;;;;5089293;28;20711;-86
2022/11/16 03:19:13;;;;;;;0.00;0.00;;;11.50;99.90;;;;;;5056978;28;20212;-85
2022/11/16 03:21:50;;;;;;;0.10;0.10;;;11.60;99.90;;;;;;5097891;28;20255;-84
2022/11/16 03:24:16;;;;;;;0.10;0.10;;;11.60;99.90;;;;;;5099915;28;20210;-85
2022/11/16 03:26:53;;;;;;;0.10;0.10;;;11.60;99.90;;;;;;5088098;28;20167;-85
2022/11/16 03:29:29;;;;;;;0.10;0.10;;;11.50;99.90;;;;;;5087564;28;20584;-85
2022/11/16 03:32:10;;;;;;;0.10;0.10;;;11.40;99.90;;;;;;5104633;28;20211;-85
2022/11/16 03:34:37;;;;;;;0.10;0.10;;;11.10;99.90;;;;;;5102858;28;20268;-85
2022/11/16 03:37:04;;;;;;;0.10;0.10;;;11.00;99.90;;;;;;5103325;28;20196;-85
2022/11/16 03:39:37;;;;;;;0.10;0.10;;;10.90;99.90;;;;;;5079884;28;20682;-85
2022/11/16 03:42:07;;;;;;;0.10;0.10;;;10.90;99.90;;;;;;5087184;28;20180;-85
2022/11/16 03:44:34;;;;;;;0.00;0.00;;;10.90;99.90;;;;;;5096771;28;20248;-85
2022/11/16 03:47:00;;;;;;;0.10;0.10;;;10.90;99.90;;;;;;5108424;28;20207;-86
2022/11/16 03:49:29;;;;;;;0.10;0.10;;;11.00;99.90;;;;;;5093241;28;20200;-85
2022/11/16 03:51:55;;;;;;;0.10;0.10;;;11.00;99.90;;;;;;5093902;28;20182;-85
2022/11/16 03:54:21;;;;;;;0.10;0.10;;;11.10;99.90;;;;;;5097942;28;20177;-85
2022/11/16 03:56:47;;;;;;;0.10;0.10;;;11.20;99.90;;;;;;5105310;28;20211;-85
2022/11/16 03:59:12;;;;;;;0.10;0.10;;;11.30;99.90;;;;;;5090580;28;20216;-85
2022/11/16 04:01:38;;;;;;;0.10;0.10;;;11.40;99.90;;;;;;5095600;28;20533;-85
2022/11/16 04:04:03;;;;;;;0.10;0.10;;;11.50;99.90;;;;;;5085440;28;20187;-85
2022/11/16 04:25:59;;;;;;;0.10;0.10;;;11.90;99.90;;;;;;5069102;28;20204;-85
2022/11/16 04:28:30;;;;;;;0.10;0.10;;;11.90;99.90;;;;;;5097963;28;20596;-84
2022/11/16 04:39:11;;;;;;;0.10;0.10;;;11.90;99.90;;;;;;5094731;28;20266;-85
2022/11/16 04:44:21;;;;;;;0.10;0.10;;;12.00;99.90;;;;;;5101659;28;20190;-85
2022/11/16 04:49:31;;;;;;;0.10;0.10;;;12.00;99.90;;;;;;5099407;28;20203;-85
2022/11/16 04:51:57;;;;;;;0.10;0.10;;;12.00;99.90;;;;;;5085728;28;20176;-85
2022/11/16 04:54:22;;;;;;;0.10;0.10;;;12.00;99.90;;;;;;5079103;28;20195;-85
2022/11/16 04:56:48;;;;;;;0.10;0.10;;;12.00;99.90;;;;;;5107712;28;20249;-84
2022/11/16 04:59:14;;;;;;;0.10;0.10;;;12.00;99.90;;;;;;5092629;28;20712;-86
2022/11/16 05:04:24;;;;;;;0.10;0.10;;;12.00;99.90;;;;;;5106942;28;20214;-86
2022/11/16 05:06:49;;;;;;;0.10;0.10;;;12.00;99.90;;;;;;5097840;28;20173;-85
2022/11/16 05:09:15;;;;;;;0.10;0.10;;;12.00;99.90;;;;;;5107856;28;20727;-85
2022/11/16 05:11:41;;;;;;;0.10;0.10;;;12.10;99.90;;;;;;5092166;28;20184;-85
2022/11/16 05:14:08;;;;;;;0.10;0.10;;;12.10;99.90;;;;;;5110166;28;20592;-85
2022/11/16 05:16:34;;;;;;;0.10;0.10;;;12.00;99.90;;;;;;5108856;28;20180;-85
2022/11/16 05:21:43;;;;;;;0.10;0.10;;;12.00;99.90;;;;;;5099286;28;20182;-84
2022/11/16 05:26:53;;;;;;;0.10;0.10;;;11.90;99.90;;;;;;5102112;28;20241;-86
2022/11/16 05:29:18;;;;;;;0.10;0.10;;;12.00;99.90;;;;;;5091866;28;20673;-86
2022/11/16 05:31:44;;;;;;;0.10;0.10;;;12.00;99.90;;;;;;5097350;28;20202;-84
2022/11/16 05:34:10;;;;;;;0.10;0.10;;;12.00;99.90;;;;;;5103725;28;20543;-85
2022/11/16 05:36:35;;;;;;;0.10;0.10;;;12.00;99.90;;;;;;5106309;28;20198;-84
2022/11/16 05:39:01;;;;;;;0.10;0.10;;;12.00;99.90;;;;;;5086928;28;20571;-84
2022/11/16 05:41:26;;;;;;;0.10;0.10;;;12.00;99.90;;;;;;5096764;28;20263;-85
2022/11/16 05:43:54;;;;;;;0.10;0.10;;;11.90;99.90;;;;;;5099810;28;20569;-85
2022/11/16 05:46:20;;;;;;;0.10;0.10;;;11.90;99.90;;;;;;5093390;28;20208;-85
2022/11/16 05:48:45;;;;;;;0.10;0.10;;;12.00;99.90;;;;;;5096123;28;20808;-85
2022/11/16 05:51:11;;;;;;;0.10;0.10;;;11.90;99.90;;;;;;5104198;28;20665;-85
2022/11/16 05:53:36;;;;;;;0.10;0.10;;;11.90;99.90;;;;;;5104935;28;20180;-85
2022/11/16 05:56:02;;;;;;;0.10;0.10;;;11.80;99.90;;;;;;5104242;28;20200;-85
2022/11/16 05:58:27;;;;;;;0.10;0.10;;;11.80;99.90;;;;;;5092718;28;20286;-85
2022/11/16 06:00:53;;;;;;;0.10;0.10;;;11.80;99.90;;;;;;5097125;28;20218;-86
2022/11/16 06:03:18;;;;;;;0.10;0.10;;;11.80;99.90;;;;;;5105260;28;20641;-85
2022/11/16 06:05:44;;;;;;;0.10;0.10;;;11.90;99.90;;;;;;5085217;28;20942;-85
2022/11/16 06:08:10;;;;;;;0.10;0.10;;;11.90;99.90;;;;;;5099251;28;20184;-85
2022/11/16 06:10:35;;;;;;;0.10;0.10;;;11.90;99.90;;;;;;5096636;28;20200;-86
2022/11/16 06:13:01;;;;;;;0.10;0.10;;;11.90;99.90;;;;;;5100012;28;20271;-86
2022/11/16 06:15:27;;;;;;;0.03;0.03;;;11.80;99.90;;;;;;5096569;28;20192;-86
2022/11/16 06:17:52;;;;;;;0.10;0.10;;;11.70;99.90;;;;;;5097956;28;20207;-85
2022/11/16 06:20:18;;;;;;;0.10;0.10;;;11.70;99.90;;;;;;5095121;28;20575;-85
2022/11/16 06:22:44;;;;;;;0.10;0.10;;;11.80;99.90;;;;;;5094919;28;20660;-85
2022/11/16 06:25:12;;;;;;;0.10;0.10;;;11.70;99.90;;;;;;5082722;28;20267;-85
2022/11/16 06:27:40;;;;;;;0.10;0.10;;;11.70;99.90;;;;;;5106665;28;20176;-86
2022/11/16 06:30:06;;;;;;;0.10;0.10;;;11.70;99.90;;;;;;5100617;28;20328;-84
2022/11/16 06:32:32;;;;;;;0.10;0.10;;;11.70;99.90;;;;;;5101919;28;20211;-84
2022/11/16 06:34:58;;;;;;;0.10;0.10;;;11.70;99.90;;;;;;5097728;28;20215;-85
2022/11/16 06:37:23;;;;;;;0.10;0.10;;;11.80;99.90;;;;;;5103384;28;20205;-84
2022/11/16 06:39:49;;;;;;;0.10;0.10;;;11.90;99.90;;;;;;5098359;28;20203;-86
2022/11/16 06:42:14;;;;;;;0.10;0.10;;;11.90;99.90;;;;;;5106801;28;20180;-85
2022/11/16 06:44:40;;;;;;;0.10;0.10;;;11.90;99.90;;;;;;5096970;28;20172;-85
2022/11/16 06:47:05;;;;;;;0.10;0.10;;;12.00;99.90;;;;;;5101399;28;20278;-85
2022/11/16 06:49:31;;;;;;;0.10;0.10;;;12.00;99.90;;;;;;5095974;28;20204;-85
2022/11/16 06:51:56;;;;;;;0.10;0.10;;;12.00;99.90;;;;;;5098753;28;20180;-85
2022/11/16 06:54:22;;;;;;;0.10;0.10;;;12.00;99.90;;;;;;5105815;28;20207;-86
2022/11/16 06:56:47;;;;;;;0.10;0.10;;;12.00;99.90;;;;;;5102765;28;20649;-85
2022/11/16 06:59:13;;;;;;;0.10;0.10;;;11.90;99.90;;;;;;5094006;28;20213;-85
2022/11/16 07:01:39;;;;;;;0.10;0.10;;;12.00;99.90;;;;;;5081621;28;20171;-84
2022/11/16 07:04:04;;;;;;;0.10;0.10;;;12.00;99.90;;;;;;5089201;28;20181;-85
2022/11/16 07:06:30;;;;;;;0.10;0.10;;;11.90;99.90;;;;;;5097376;28;20664;-86
2022/11/16 07:08:55;;;;;;;0.10;0.10;;;11.90;99.90;;;;;;5096923;28;20260;-85
2022/11/16 07:11:21;;;;;;;0.10;0.10;;;12.00;99.90;;;;;;5098302;28;20216;-86
2022/11/16 07:13:49;;;;;;;0.10;0.10;;;12.00;99.90;;;;;;5097324;28;20267;-86
2022/11/16 07:16:15;;;;;;;0.10;0.10;;;12.10;99.90;;;;;;5088308;28;20184;-86
2022/11/16 07:18:41;;;;;;;0.10;0.10;;;12.20;99.90;;;;;;5088055;28;20609;-84
2022/11/16 07:21:09;;;;;;;0.10;0.10;;;12.30;99.90;;;;;;5102022;28;20302;-85
2022/11/16 07:23:35;;;;;;;0.10;0.10;;;12.20;99.90;;;;;;5087914;28;20650;-85
2022/11/16 07:26:02;;;;;;;0.10;0.10;;;12.20;99.90;;;;;;5106439;28;20660;-85
2022/11/16 07:28:28;;;;;;;0.03;0.03;;;12.10;99.90;;;;;;5094566;28;20234;-86
2022/11/16 07:30:55;;;;;;;0.10;0.10;;;12.20;99.90;;;;;;5081100;28;20287;-85
2022/11/16 07:33:20;;;;;;;0.10;0.10;;;12.20;99.90;;;;;;5085110;28;20645;-86
2022/11/16 07:35:46;;;;;;;0.10;0.10;;;12.10;99.90;;;;;;5102976;28;20180;-85
2022/11/16 07:38:11;;;;;;;0.10;0.10;;;12.00;99.90;;;;;;5088883;28;20204;-85
2022/11/16 07:40:37;;;;;;;0.10;0.10;;;12.00;99.90;;;;;;5091026;28;20188;-86
2022/11/16 07:43:02;;;;;;;0.10;0.10;;;12.20;99.90;;;;;;5108402;28;20633;-86
2022/11/16 07:45:28;;;;;;;0.10;0.10;;;12.30;99.90;;;;;;5088979;28;20178;-84
2022/11/16 07:47:54;;;;;;;0.10;0.10;;;12.40;99.90;;;;;;5104030;28;20198;-86
2022/11/16 07:50:19;;;;;;;0.10;0.10;;;12.50;99.90;;;;;;5086911;28;20200;-85
2022/11/16 07:52:45;;;;;;;0.10;0.10;;;12.60;99.90;;;;;;5088169;28;20689;-85
2022/11/16 07:55:12;;;;;;;0.10;0.10;;;12.70;99.90;;;;;;5100503;28;20281;-86
2022/11/16 07:57:37;;;;;;;0.10;0.10;;;12.90;99.90;;;;;;5108123;28;20192;-85
2022/11/16 08:00:04;;;;;;;0.10;0.10;;;12.90;99.90;;;;;;5085141;28;20211;-85
2022/11/16 08:02:30;;;;;;;0.10;0.10;;;12.80;99.90;;;;;;5104052;28;20221;-85
2022/11/16 08:04:55;;;;;;;0.10;0.10;;;12.60;99.90;;;;;;5099293;28;20177;-85
2022/11/16 08:07:21;;;;;;;0.10;0.10;;;12.50;99.90;;;;;;5091708;28;20561;-85
2022/11/16 08:09:47;;;;;;;0.10;0.10;;;12.50;99.90;;;;;;5094000;28;20271;-85
2022/11/16 08:12:12;;;;;;;0.10;0.10;;;12.40;99.90;;;;;;5092433;28;20181;-86
2022/11/16 08:14:38;;;;;;;0.10;0.10;;;12.20;99.90;;;;;;5092920;28;20233;-84
2022/11/16 08:17:04;;;;;;;0.10;0.10;;;12.00;99.90;;;;;;5108149;28;20172;-85
2022/11/16 08:19:30;;;;;;;0.10;0.10;;;11.90;99.90;;;;;;5090261;28;20207;-86
2022/11/16 08:21:55;;;;;;;0.10;0.10;;;11.80;99.90;;;;;;5104660;28;20181;-84
2022/11/16 08:24:21;;;;;;;0.10;0.10;;;11.70;99.90;;;;;;5088476;28;20268;-86
2022/11/16 08:26:46;;;;;;;0.10;0.10;;;11.60;99.90;;;;;;5102141;28;20178;-86
2022/11/16 08:29:13;;;;;;;0.10;0.10;;;11.60;99.90;;;;;;5087354;28;20200;-85
2022/11/16 08:31:39;;;;;;;0.10;0.10;;;11.60;99.90;;;;;;5101733;28;20195;-85
2022/11/16 08:34:04;;;;;;;0.10;0.10;;;11.60;99.90;;;;;;5087815;28;20661;-84
2022/11/16 08:36:30;;;;;;;0.10;0.10;;;11.60;99.90;;;;;;5092999;28;20264;-86
2022/11/16 08:38:55;;;;;;;0.10;0.10;;;11.60;99.90;;;;;;5087641;28;20206;-85
2022/11/16 08:41:21;;;;;;;0.10;0.10;;;11.80;99.90;;;;;;5086294;28;20218;-86
2022/11/16 08:43:49;;;;;;;0.10;0.10;;;12.00;99.90;;;;;;5104595;28;20195;-85
2022/11/16 08:46:16;;;;;;;0.10;0.10;;;12.00;99.90;;;;;;5089990;28;20787;-85
2022/11/16 08:48:41;;;;;;;0.10;0.10;;;11.90;99.90;;;;;;5092824;28;20180;-85
2022/11/16 08:51:10;;;;;;;0.10;0.10;;;11.80;99.90;;;;;;5091372;28;20578;-85
2022/11/16 08:53:36;;;;;;;0.10;0.10;;;11.70;99.90;;;;;;5088565;28;20229;-85
2022/11/16 08:56:07;;;;;;;0.10;0.10;;;11.80;99.90;;;;;;5106129;28;20184;-85
2022/11/16 08:58:34;;;;;;;0.10;0.10;;;11.80;99.90;;;;;;5096389;28;20208;-85
2022/11/16 09:01:10;;;;;;;0.10;0.10;;;11.80;99.90;;;;;;5098957;28;20192;-85
2022/11/16 09:03:36;;;;;;;0.10;0.10;;;11.80;99.90;;;;;;5095178;28;20270;-85
2022/11/16 09:06:02;;;;;;;0.10;0.10;;;11.90;99.90;;;;;;5100010;28;20179;-86
2022/11/16 09:08:28;;;;;;;0.10;0.10;;;11.90;99.90;;;;;;5087692;28;20263;-85
2022/11/16 09:10:53;;;;;;;0.10;0.10;;;12.00;99.90;;;;;;5102823;28;20282;-85
2022/11/16 09:13:19;;;;;;;0.10;0.10;;;12.20;99.90;;;;;;5103752;28;20190;-84
2022/11/16 09:15:44;;;;;;;0.10;0.10;;;12.50;99.90;;;;;;5097295;27;20181;-85
2022/11/16 09:18:10;;;;;;;0.10;0.10;;;12.50;99.90;;;;;;5091522;28;20181;-85
2022/11/16 09:20:35;;;;;;;0.10;0.10;;;12.40;99.90;;;;;;5096431;28;20249;-84
2022/11/16 09:23:01;;;;;;;0.03;0.03;;;12.40;99.90;;;;;;5099051;28;20180;-85
2022/11/16 09:25:26;;;;;;;0.10;0.10;;;12.60;99.90;;;;;;5093026;28;20235;-85
2022/11/16 09:27:54;;;;;;;0.10;0.10;;;12.80;99.90;;;;;;5101391;28;20270;-85
2022/11/16 09:30:20;;;;;;;0.10;0.10;;;12.80;99.90;;;;;;5095255;28;20201;-85
2022/11/16 09:32:45;;;;;;;0.10;0.10;;;12.70;99.90;;;;;;5093905;28;20172;-85
2022/11/16 09:35:11;;;;;;;0.10;0.10;;;12.60;99.90;;;;;;5110342;28;20188;-86
2022/11/16 09:37:36;;;;;;;0.10;0.10;;;12.50;99.90;;;;;;5087748;28;20177;-85
2022/11/16 09:40:03;;;;;;;0.10;0.10;;;12.40;99.90;;;;;;5089269;28;20215;-86
2022/11/16 09:42:53;;;;;;;0.10;0.10;;;12.30;99.90;;;;;;5092392;28;20190;-84
2022/11/16 09:45:23;;;;;;;0.10;0.10;;;12.30;99.90;;;;;;5104410;28;20739;-86
2022/11/16 09:47:56;;;;;;;0.10;0.10;;;12.30;99.90;;;;;;5101282;28;20531;-86
2022/11/16 09:50:46;;;;;;;0.10;0.10;;;12.40;99.90;;;;;;5080859;28;20284;-86
2022/11/16 09:53:30;;;;;;;0.10;0.10;;;12.50;99.90;;;;;;5105210;28;20178;-86
2022/11/16 09:56:24;;;;;;;0.10;0.10;;;12.70;99.90;;;;;;5087689;28;20175;-86
2022/11/16 09:59:07;;;;;;;0.10;0.10;;;12.90;99.90;;;;;;5081408;28;20213;-85
2022/11/16 10:01:42;;;;;;;0.10;0.10;;;13.00;99.90;;;;;;5096718;28;20172;-86
2022/11/16 10:04:25;;;;;;;0.10;0.10;;;13.10;99.90;;;;;;5098401;28;20171;-86
2022/11/16 10:07:23;;;;;;;0.10;0.10;;;13.30;99.90;;;;;;5099388;28;20180;-86
2022/11/16 10:09:49;;;;;;;0.10;0.10;;;13.30;99.90;;;;;;5074256;28;20238;-85
2022/11/16 10:12:15;;;;;;;0.10;0.10;;;13.20;99.90;;;;;;5097586;28;20213;-85
2022/11/16 10:14:49;;;;;;;0.10;0.10;;;13.30;99.90;;;;;;5105960;28;20184;-85
2022/11/16 10:17:41;;;;;;;0.10;0.10;;;13.30;99.90;;;;;;5090330;28;20233;-85
2022/11/16 10:20:10;;;;;;;0.10;0.10;;;13.30;99.90;;;;;;5087816;28;20220;-85
2022/11/16 10:23:05;;;;;;;0.10;0.10;;;13.30;99.90;;;;;;5090441;28;20180;-86
2022/11/16 10:25:47;;;;;;;0.10;0.10;;;13.30;99.90;;;;;;5097141;28;20195;-85
2022/11/16 10:28:45;;;;;;;0.10;0.10;;;13.40;99.90;;;;;;5097160;28;20176;-85
2022/11/16 10:31:42;;;;;;;0.10;0.10;;;13.30;99.90;;;;;;5099542;28;20217;-86
2022/11/16 10:34:16;;;;;;;0.10;0.10;;;13.40;99.90;;;;;;5090561;28;20188;-86
2022/11/16 10:36:42;;;;;;;0.10;0.10;;;13.30;99.90;;;;;;5096815;28;20175;-86
2022/11/16 10:39:12;;;;;;;0.10;0.10;;;13.30;99.90;;;;;;5092039;28;20289;-86
2022/11/16 10:41:50;;;;;;;0.10;0.10;;;13.20;99.90;;;;;;5090772;28;20181;-86
2022/11/16 10:44:28;;;;;;;0.10;0.10;;;13.20;99.90;;;;;;5088222;28;20573;-85
2022/11/16 10:47:09;;;;;;;0.10;0.10;;;13.20;99.90;;;;;;5092689;28;20192;-85
2022/11/16 10:49:39;;;;;;;0.10;0.10;;;13.20;99.90;;;;;;5093277;28;20224;-85
2022/11/16 10:52:05;;;;;;;0.10;0.10;;;13.50;99.90;;;;;;5100122;28;20242;-86
2022/11/16 10:54:31;;;;;;;0.10;0.10;;;13.70;99.90;;;;;;5098375;28;20187;-85
2022/11/16 10:57:12;;;;;;;0.10;0.10;;;14.10;99.90;;;;;;5102782;28;20288;-85
2022/11/16 10:59:44;;;;;;;0.10;0.10;;;14.20;99.90;;;;;;5098276;28;20295;-85
2022/11/16 11:02:21;;;;;;;0.10;0.10;;;14.50;99.90;;;;;;5097347;28;20232;-85
2022/11/16 11:05:19;;;;;;;0.10;0.10;;;14.90;99.90;;;;;;5094315;28;20195;-86
2022/11/16 11:07:49;;;;;;;0.10;0.10;;;15.10;99.90;;;;;;5094116;28;20267;-86
2022/11/16 11:10:28;;;;;;;0.10;0.10;;;15.30;99.90;;;;;;5101743;28;20211;-86
2022/11/16 11:13:02;;;;;;;0.10;0.10;;;15.20;99.90;;;;;;5103631;28;20225;-85
2022/11/16 11:15:28;;;;;;;0.10;0.10;;;15.30;99.90;;;;;;5095079;28;20189;-85
2022/11/16 11:18:23;;;;;;;0.10;0.10;;;15.10;99.90;;;;;;5098104;28;20192;-86
2022/11/16 11:21:09;;;;;;;0.10;0.10;;;15.10;99.90;;;;;;5060522;28;20214;-86
2022/11/16 11:23:44;;;;;;;0.10;0.10;;;14.90;99.90;;;;;;5092112;28;20183;-84
2022/11/16 11:26:22;;;;;;;0.10;0.10;;;14.90;99.90;;;;;;5087638;28;20187;-85
2022/11/16 11:28:49;;;;;;;0.10;0.10;;;15.00;99.90;;;;;;5093884;28;20178;-86
2022/11/16 11:31:24;;;;;;;0.10;0.10;;;15.00;99.90;;;;;;5096237;28;20303;-87
2022/11/16 11:33:58;;;;;;;0.10;0.10;;;15.10;99.90;;;;;;5099595;28;20655;-86
2022/11/16 11:36:46;;;;;;;0.10;0.10;;;14.90;99.90;;;;;;5110042;28;20191;-87
2022/11/16 11:39:12;;;;;;;0.10;0.10;;;14.80;99.90;;;;;;5087864;28;20207;-86
2022/11/16 11:41:40;;;;;;;0.10;0.10;;;14.70;99.90;;;;;;5094455;28;20274;-86
2022/11/16 11:44:15;;;;;;;0.10;0.10;;;14.50;99.90;;;;;;5090018;28;20387;-86
2022/11/16 11:47:10;;;;;;;0.10;0.10;;;14.50;99.90;;;;;;5093793;28;20165;-86
2022/11/16 11:49:40;;;;;;;0.10;0.10;;;14.80;99.90;;;;;;5088003;28;20199;-86
2022/11/16 11:52:18;;;;;;;0.10;0.10;;;15.20;99.90;;;;;;5099354;28;20182;-86
2022/11/16 11:54:46;;;;;;;0.10;0.10;;;15.60;99.90;;;;;;5093006;28;20560;-86
2022/11/16 11:57:19;;;;;;;0.10;0.10;;;15.90;99.90;;;;;;5078639;28;20196;-86
2022/11/16 11:59:45;;;;;;;0.10;0.10;;;16.10;99.90;;;;;;5103641;28;20209;-86
2022/11/16 12:02:30;;;;;;;0.10;0.10;;;16.30;99.90;;;;;;5099457;28;20179;-86
2022/11/16 12:05:34;;;;;;;0.10;0.10;;;16.30;99.90;;;;;;5096122;28;20208;-86
2022/11/16 12:08:19;;;;;;;0.10;0.10;;;16.10;99.90;;;;;;5096774;28;20180;-87
2022/11/16 12:10:50;;;;;;;0.10;0.10;;;16.30;99.90;;;;;;5098333;28;20283;-86
2022/11/16 12:13:36;;;;;;;0.10;0.10;;;16.50;99.90;;;;;;5102569;28;20179;-86
2022/11/16 12:16:20;;;;;;;0.10;0.10;;;16.50;99.90;;;;;;5088000;28;20172;-87
2022/11/16 12:18:57;;;;;;;0.10;0.10;;;16.20;99.90;;;;;;5095472;28;20206;-86
2022/11/16 12:21:33;;;;;;;0.10;0.10;;;16.00;99.90;;;;;;5097289;28;20174;-86
2022/11/16 12:24:17;;;;;;;0.10;0.10;;;15.60;99.90;;;;;;5091648;28;20275;-86
2022/11/16 12:26:48;;;;;;;0.10;0.10;;;15.30;99.90;;;;;;5080732;28;20279;-86
2022/11/16 12:29:25;;;;;;;0.10;0.10;;;15.40;99.90;;;;;;5108213;28;20214;-86
2022/11/16 12:32:06;;;;;;;0.10;0.10;;;15.70;99.90;;;;;;5094487;28;20216;-85
2022/11/16 12:34:57;;;;;;;0.10;0.10;;;15.60;99.90;;;;;;5109695;28;20179;-85
2022/11/16 12:37:38;;;;;;;0.10;0.10;;;16.00;99.90;;;;;;5101085;28;20183;-86
2022/11/16 12:40:07;;;;;;;0.10;0.10;;;16.10;99.90;;;;;;5107232;28;20218;-86
2022/11/16 12:42:52;;;;;;;0.10;0.10;;;16.20;99.90;;;;;;5072944;28;20190;-85
2022/11/16 12:45:41;;;;;;;0.10;0.10;;;16.50;99.90;;;;;;5094440;28;20212;-86
2022/11/16 12:48:18;;;;;;;0.10;0.10;;;16.70;99.90;;;;;;5107715;28;20260;-86
2022/11/16 12:51:01;;;;;;;0.10;0.10;;;16.40;99.90;;;;;;5110226;28;20222;-86
2022/11/16 12:54:00;;;;;;;0.10;0.10;;;16.00;99.90;;;;;;5109702;28;20202;-86
2022/11/16 12:56:50;;;;;;;0.10;0.10;;;15.70;99.90;;;;;;5090500;28;20732;-86
2022/11/16 12:59:35;;;;;;;0.10;0.10;;;15.30;99.90;;;;;;5103331;28;20220;-86
2022/11/16 13:02:09;;;;;;;0.00;0.00;;;15.00;99.90;;;;;;5099869;28;20193;-86
2022/11/16 13:04:40;;;;;;;0.10;0.10;;;15.00;99.90;;;;;;5088294;28;20187;-87
2022/11/16 13:07:30;;;;;;;0.10;0.10;;;14.90;99.90;;;;;;5101751;28;20180;-86
2022/11/16 13:10:18;;;;;;;0.10;0.10;;;14.80;99.90;;;;;;5106567;28;20298;-87
2022/11/16 13:12:48;;;;;;;0.10;0.10;;;14.80;99.90;;;;;;5100389;28;20260;-86
2022/11/16 13:15:23;;;;;;;0.10;0.10;;;15.10;99.90;;;;;;5106050;28;20236;-87
2022/11/16 13:17:56;;;;;;;0.10;0.10;;;15.40;99.90;;;;;;5124400;28;20184;-87
2022/11/16 13:20:37;;;;;;;0.10;0.10;;;15.50;99.90;;;;;;5115567;28;20271;-86
2022/11/16 13:23:40;;;;;;;0.10;0.10;;;15.70;99.90;;;;;;5101520;28;20186;-86
2022/11/16 13:26:17;;;;;;;0.10;0.10;;;15.70;99.90;;;;;;5093156;28;20187;-87
2022/11/16 13:28:53;;;;;;;0.10;0.10;;;15.50;99.90;;;;;;5095171;28;20239;-86
2022/11/16 13:31:31;;;;;;;0.10;0.10;;;15.40;99.90;;;;;;5105853;28;20187;-86
2022/11/16 13:34:04;;;;;;;0.10;0.10;;;15.40;99.90;;;;;;5107501;28;20179;-86
2022/11/16 13:36:36;;;;;;;0.10;0.10;;;15.40;99.90;;;;;;5097538;28;20171;-88
2022/11/16 13:39:04;;;;;;;0.10;0.10;;;15.30;99.90;;;;;;5100220;28;20203;-86
2022/11/16 13:41:33;;;;;;;0.10;0.10;;;15.20;99.90;;;;;;5108234;28;20251;-87
2022/11/16 13:44:00;;;;;;;0.07;0.07;;;15.20;99.90;;;;;;5105931;28;20176;-87
2022/11/16 13:46:48;;;;;;;0.10;0.10;;;15.10;99.90;;;;;;5102748;28;20215;-87
2022/11/16 13:49:31;;;;;;;0.10;0.10;;;15.00;99.90;;;;;;5085782;28;20634;-86
2022/11/16 13:52:00;;;;;;;0.10;0.10;;;15.00;99.90;;;;;;5099510;28;20165;-86
2022/11/16 13:54:32;;;;;;;0.10;0.10;;;14.90;99.90;;;;;;5096073;28;20273;-85
2022/11/16 13:56:59;;;;;;;0.10;0.10;;;14.90;99.90;;;;;;5089521;28;20203;-87